createdAt,value
2019-02-03T00:00:15.944Z,100393.50
2019-02-03T00:02:45.578Z,100395.78
2019-02-03T00:05:15.271Z,100396.16
2019-02-03T00:07:44.754Z,100397.70
2019-02-03T00:10:14.415Z,100397.72
2019-02-03T00:12:43.905Z,100394.47
2019-02-03T00:15:13.921Z,100399.59
2019-02-03T00:17:43.444Z,100395.80
2019-02-03T00:20:13.449Z,100397.53
2019-02-03T00:22:43.131Z,100403.94
2019-02-03T00:25:12.770Z,100408.59
2019-02-03T00:27:42.403Z,100416.61
2019-02-03T00:30:15.175Z,100419.58
2019-02-03T00:32:44.754Z,100429.55
2019-02-03T00:35:15.270Z,100429.69
2019-02-03T00:37:44.825Z,100434.46
2019-02-03T00:40:15.949Z,100435.01
2019-02-03T00:42:45.527Z,100435.95
2019-02-03T00:45:15.869Z,100438.33
2019-02-03T00:47:45.541Z,100447.48
2019-02-03T00:50:16.990Z,100455.80
2019-02-03T00:52:46.566Z,100457.00
2019-02-03T00:55:18.534Z,100462.95
2019-02-03T00:57:48.098Z,100472.48
2019-02-03T01:00:18.889Z,100473.02
2019-02-03T01:02:48.387Z,100477.36
2019-02-03T01:05:19.569Z,100480.23
2019-02-03T01:07:49.201Z,100483.06
2019-02-03T01:10:23.679Z,100487.69
2019-02-03T01:12:53.327Z,100489.90
2019-02-03T01:15:22.961Z,100491.42
2019-02-03T01:17:52.530Z,100487.48
2019-02-03T01:20:26.800Z,100493.33
2019-02-03T01:22:56.494Z,100491.03
2019-02-03T01:25:26.000Z,100497.41
2019-02-03T01:27:55.692Z,100504.42
2019-02-03T01:30:26.146Z,100506.28
2019-02-03T01:32:55.695Z,100516.88
2019-02-03T01:35:25.330Z,100523.16
2019-02-03T01:37:55.112Z,100530.95
2019-02-03T01:40:24.835Z,100524.72
2019-02-03T01:42:54.394Z,100522.05
2019-02-03T01:45:24.583Z,100528.34
2019-02-03T01:47:54.220Z,100529.20
2019-02-03T01:50:24.140Z,100533.14
2019-02-03T01:52:53.704Z,100534.86
2019-02-03T01:55:26.506Z,100535.45
2019-02-03T01:57:56.180Z,100542.84
2019-02-03T02:00:28.894Z,100545.72
2019-02-03T02:02:58.658Z,100552.27
2019-02-03T02:05:28.282Z,100560.47
2019-02-03T02:07:57.851Z,100562.23
2019-02-03T02:10:29.374Z,100571.42
2019-02-03T02:12:59.010Z,100572.17
2019-02-03T02:15:28.694Z,100576.48
2019-02-03T02:17:58.207Z,100566.55
2019-02-03T02:20:30.103Z,100564.73
2019-02-03T02:22:59.721Z,100567.70
2019-02-03T02:25:29.298Z,100578.68
2019-02-03T02:27:58.860Z,100577.40
2019-02-03T02:30:28.829Z,100581.33
2019-02-03T02:32:58.479Z,100580.59
2019-02-03T02:35:28.081Z,100585.34
2019-02-03T02:38:06.344Z,100591.34
2019-02-03T02:40:28.791Z,100599.94
2019-02-03T02:42:58.657Z,100591.14
2019-02-03T02:45:28.146Z,100601.23
2019-02-03T02:47:57.638Z,100596.16
2019-02-03T02:50:37.133Z,100601.84
2019-02-03T02:53:06.628Z,100603.69
2019-02-03T02:55:36.175Z,100612.80
2019-02-03T02:58:06.170Z,100615.22
2019-02-03T03:00:35.812Z,100620.58
2019-02-03T03:03:05.559Z,100616.11
2019-02-03T03:05:35.068Z,100618.14
2019-02-03T03:08:18.429Z,100625.07
2019-02-03T03:10:36.936Z,100624.03
2019-02-03T03:13:06.636Z,100630.02
2019-02-03T03:15:36.128Z,100624.44
2019-02-03T03:18:06.063Z,100633.04
2019-02-03T03:20:36.025Z,100627.98
2019-02-03T03:23:05.693Z,100624.64
2019-02-03T03:25:35.256Z,100625.14
2019-02-03T03:28:04.907Z,100620.55
2019-02-03T03:30:34.584Z,100625.81
2019-02-03T03:33:04.415Z,100627.66
2019-02-03T03:35:34.547Z,100630.42
2019-02-03T03:38:04.486Z,100634.27
2019-02-03T03:40:35.033Z,100645.17
2019-02-03T03:43:04.866Z,100646.25
2019-02-03T03:45:34.430Z,100660.70
2019-02-03T03:48:04.350Z,100657.37
2019-02-03T03:50:33.864Z,100655.80
2019-02-03T03:53:03.538Z,100653.74
2019-02-03T03:55:33.155Z,100655.62
2019-02-03T03:58:02.638Z,100653.73
2019-02-03T04:00:32.602Z,100645.70
2019-02-03T04:03:02.070Z,100653.74
2019-02-03T04:05:31.828Z,100649.08
2019-02-03T04:08:01.319Z,100655.64
2019-02-03T04:10:30.815Z,100662.04
2019-02-03T04:13:00.289Z,100665.03
2019-02-03T04:15:29.851Z,100690.27
2019-02-03T04:17:59.367Z,100702.16
2019-02-03T04:20:31.447Z,100717.28
2019-02-03T04:23:00.993Z,100725.40
2019-02-03T04:25:30.482Z,100738.36
2019-02-03T04:28:00.319Z,100750.34
2019-02-03T04:30:29.883Z,100767.79
2019-02-03T04:32:59.369Z,100779.87
2019-02-03T04:35:28.868Z,100797.25
2019-02-03T04:37:58.455Z,100790.73
2019-02-03T04:40:28.032Z,100791.13
2019-02-03T04:42:57.611Z,100793.64
2019-02-03T04:45:27.096Z,100795.36
2019-02-03T04:47:56.607Z,100811.98
2019-02-03T04:50:26.090Z,100820.92
2019-02-03T04:52:55.604Z,100824.57
2019-02-03T04:55:25.329Z,100830.73
2019-02-03T04:57:54.905Z,100832.05
2019-02-03T05:00:25.601Z,100833.02
2019-02-03T05:02:55.091Z,100835.89
2019-02-03T05:05:24.683Z,100850.21
2019-02-03T05:07:54.811Z,100852.92
2019-02-03T05:10:24.376Z,100857.61
2019-02-03T05:12:53.940Z,100866.11
2019-02-03T05:15:24.549Z,100868.11
2019-02-03T05:17:54.128Z,100876.91
2019-02-03T05:20:26.425Z,100876.36
2019-02-03T05:22:56.094Z,100886.52
2019-02-03T05:25:25.680Z,100881.06
2019-02-03T05:27:55.269Z,100895.88
2019-02-03T05:30:31.420Z,100895.02
2019-02-03T05:33:01.260Z,100893.41
2019-02-03T05:35:30.885Z,100893.09
2019-02-03T05:38:00.565Z,100900.08
2019-02-03T05:40:30.112Z,100900.71
2019-02-03T05:42:59.677Z,100908.81
2019-02-03T05:45:29.232Z,100917.10
2019-02-03T05:47:58.719Z,100920.80
2019-02-03T05:50:28.207Z,100918.25
2019-02-03T05:52:57.723Z,100911.44
2019-02-03T05:55:27.287Z,100912.61
2019-02-03T05:57:56.781Z,100914.53
2019-02-03T06:00:36.122Z,100917.14
2019-02-03T06:03:05.917Z,100915.73
2019-02-03T06:05:35.502Z,100916.94
2019-02-03T06:08:05.487Z,100913.56
2019-02-03T06:10:35.055Z,100916.17
2019-02-03T06:13:04.600Z,100918.47
2019-02-03T06:15:34.091Z,100921.97
2019-02-03T06:18:03.779Z,100923.56
2019-02-03T06:20:33.262Z,100926.44
2019-02-03T06:23:02.762Z,100933.19
2019-02-03T06:25:32.714Z,100931.05
2019-02-03T06:28:02.206Z,100934.03
2019-02-03T06:30:51.512Z,100942.53
2019-02-03T06:33:21.022Z,100945.20
2019-02-03T06:35:50.952Z,100952.75
2019-02-03T06:38:20.489Z,100951.70
2019-02-03T06:40:50.116Z,100949.92
2019-02-03T06:43:19.627Z,100952.65
2019-02-03T06:45:48.890Z,100947.86
2019-02-03T06:48:28.568Z,100956.36
2019-02-03T06:50:58.188Z,100956.52
2019-02-03T06:53:27.695Z,100959.22
2019-02-03T06:55:57.182Z,100963.23
2019-02-03T06:58:28.232Z,100963.80
2019-02-03T07:00:58.087Z,100981.17
2019-02-03T07:03:27.570Z,100976.85
2019-02-03T07:05:57.245Z,100976.44
2019-02-03T07:08:26.738Z,100973.97
2019-02-03T07:10:56.241Z,100982.30
2019-02-03T07:13:25.797Z,100980.63
2019-02-03T07:15:55.311Z,100977.42
2019-02-03T07:18:24.863Z,100984.84
2019-02-03T07:20:54.384Z,100979.58
2019-02-03T07:23:23.948Z,100977.11
2019-02-03T07:25:53.442Z,100980.92
2019-02-03T07:28:23.213Z,100989.83
2019-02-03T07:30:52.757Z,100998.01
2019-02-03T07:33:22.397Z,101006.98
2019-02-03T07:35:52.028Z,101014.58
2019-02-03T07:38:21.542Z,101018.18
2019-02-03T07:40:52.271Z,101019.22
2019-02-03T07:43:21.762Z,101019.31
2019-02-03T07:45:51.398Z,101022.36
2019-02-03T07:48:20.979Z,101027.25
2019-02-03T07:50:50.536Z,101035.16
2019-02-03T07:53:20.099Z,101037.56
2019-02-03T07:55:49.632Z,101037.09
2019-02-03T07:58:19.130Z,101045.36
2019-02-03T08:00:48.708Z,101046.22
2019-02-03T08:03:18.264Z,101047.73
2019-02-03T08:05:47.821Z,101060.97
2019-02-03T08:08:17.407Z,101060.87
2019-02-03T08:10:47.039Z,101066.08
2019-02-03T08:13:16.673Z,101070.11
2019-02-03T08:15:46.235Z,101071.78
2019-02-03T08:18:15.818Z,101075.39
2019-02-03T08:20:45.502Z,101086.45
2019-02-03T08:23:15.436Z,101090.36
2019-02-03T08:25:44.934Z,101093.98
2019-02-03T08:28:14.459Z,101099.11
2019-02-03T08:30:43.964Z,101096.39
2019-02-03T08:33:13.503Z,101106.73
2019-02-03T08:35:42.983Z,101104.89
2019-02-03T08:38:12.509Z,101111.59
2019-02-03T08:40:42.184Z,101127.63
2019-02-03T08:43:11.774Z,101124.66
2019-02-03T08:45:41.412Z,101134.44
2019-02-03T08:48:11.114Z,101136.47
2019-02-03T08:50:41.174Z,101139.10
2019-02-03T08:53:10.825Z,101140.47
2019-02-03T08:55:40.386Z,101147.41
2019-02-03T08:58:12.391Z,101146.55
2019-02-03T09:00:44.056Z,101143.91
2019-02-03T09:03:14.004Z,101152.61
2019-02-03T09:05:43.581Z,101152.96
2019-02-03T09:08:13.167Z,101159.37
2019-02-03T09:10:48.422Z,101154.27
2019-02-03T09:13:13.985Z,101173.05
2019-02-03T09:15:43.628Z,101175.63
2019-02-03T09:18:13.205Z,101176.93
2019-02-03T09:20:42.757Z,101184.97
2019-02-03T09:23:12.252Z,101184.05
2019-02-03T09:25:41.732Z,101188.22
2019-02-03T09:28:11.310Z,101192.38
2019-02-03T09:30:40.978Z,101193.16
2019-02-03T09:33:10.650Z,101190.63
2019-02-03T09:35:40.201Z,101190.00
2019-02-03T09:38:09.935Z,101195.02
2019-02-03T09:40:39.454Z,101200.34
2019-02-03T09:43:09.017Z,101214.31
2019-02-03T09:45:38.659Z,101207.00
2019-02-03T09:48:08.311Z,101221.27
2019-02-03T09:50:37.914Z,101219.47
2019-02-03T09:53:07.874Z,101226.83
2019-02-03T09:55:37.516Z,101226.92
2019-02-03T09:58:07.791Z,101231.88
2019-02-03T10:00:38.901Z,101236.30
2019-02-03T10:03:12.123Z,101237.50
2019-02-03T10:05:41.750Z,101240.31
2019-02-03T10:08:11.446Z,101249.95
2019-02-03T10:10:42.717Z,101247.23
2019-02-03T10:13:12.353Z,101247.50
2019-02-03T10:15:41.973Z,101251.98
2019-02-03T10:18:11.747Z,101263.66
2019-02-03T10:20:41.299Z,101266.97
2019-02-03T10:23:10.858Z,101268.26
2019-02-03T10:25:40.489Z,101276.48
2019-02-03T10:28:10.295Z,101272.32
2019-02-03T10:30:39.942Z,101276.27
2019-02-03T10:33:09.484Z,101276.09
2019-02-03T10:35:39.035Z,101277.27
2019-02-03T10:38:09.256Z,101280.59
2019-02-03T10:40:43.692Z,101284.47
2019-02-03T10:43:13.411Z,101291.48
2019-02-03T10:45:42.991Z,101288.20
2019-02-03T10:48:12.637Z,101291.97
2019-02-03T10:50:43.010Z,101284.59
2019-02-03T10:53:13.514Z,101296.89
2019-02-03T10:55:43.182Z,101296.84
2019-02-03T10:58:12.764Z,101302.77
2019-02-03T11:00:44.249Z,101307.49
2019-02-03T11:03:13.888Z,101308.41
2019-02-03T11:05:50.943Z,101311.37
2019-02-03T11:08:20.600Z,101313.58
2019-02-03T11:10:50.473Z,101319.91
2019-02-03T11:13:20.055Z,101328.17
2019-02-03T11:15:49.693Z,101323.30
2019-02-03T11:18:19.550Z,101326.02
2019-02-03T11:20:49.112Z,101332.25
2019-02-03T11:23:18.654Z,101336.35
2019-02-03T11:25:48.393Z,101333.95
2019-02-03T11:28:17.942Z,101339.06
2019-02-03T11:30:47.680Z,101345.08
2019-02-03T11:33:17.668Z,101338.81
2019-02-03T11:35:47.239Z,101355.48
2019-02-03T11:38:16.904Z,101349.67
2019-02-03T11:40:46.397Z,101353.84
2019-02-03T11:43:15.902Z,101361.02
2019-02-03T11:45:45.431Z,101362.97
2019-02-03T11:48:20.112Z,101366.86
2019-02-03T11:50:51.018Z,101364.75
2019-02-03T11:53:26.334Z,101374.78
2019-02-03T11:55:56.489Z,101372.16
2019-02-03T11:58:26.021Z,101382.53
2019-02-03T12:00:56.120Z,101377.69
2019-02-03T12:03:25.783Z,101386.31
2019-02-03T12:05:55.412Z,101389.62
2019-02-03T12:08:24.990Z,101386.86
2019-02-03T12:10:54.557Z,101394.19
2019-02-03T12:13:24.116Z,101395.48
2019-02-03T12:15:53.839Z,101400.72
2019-02-03T12:18:23.425Z,101405.02
2019-02-03T12:20:53.127Z,101395.77
2019-02-03T12:23:22.704Z,101400.31
2019-02-03T12:25:52.674Z,101409.52
2019-02-03T12:28:22.195Z,101401.89
2019-02-03T12:30:51.908Z,101402.89
2019-02-03T12:33:21.456Z,101400.44
2019-02-03T12:35:51.061Z,101408.69
2019-02-03T12:38:20.898Z,101402.30
2019-02-03T12:40:50.486Z,101403.98
2019-02-03T12:43:19.978Z,101408.29
2019-02-03T12:45:49.477Z,101406.48
2019-02-03T12:48:19.103Z,101408.11
2019-02-03T12:50:48.667Z,101411.56
2019-02-03T12:53:18.333Z,101420.97
2019-02-03T12:55:47.916Z,101409.27
2019-02-03T12:58:19.474Z,101425.43
2019-02-03T13:00:49.542Z,101419.74
2019-02-03T13:03:19.353Z,101414.99
2019-02-03T13:05:49.499Z,101424.44
2019-02-03T13:08:18.970Z,101423.32
2019-02-03T13:10:48.547Z,101419.34
2019-02-03T13:13:18.073Z,101419.59
2019-02-03T13:15:51.066Z,101420.80
2019-02-03T13:18:20.942Z,101427.59
2019-02-03T13:20:50.516Z,101433.58
2019-02-03T13:23:20.166Z,101439.30
2019-02-03T13:25:49.785Z,101439.38
2019-02-03T13:28:19.380Z,101451.95
2019-02-03T13:30:50.751Z,101448.97
2019-02-03T13:33:21.486Z,101448.38
2019-02-03T13:35:52.737Z,101454.42
2019-02-03T13:38:22.227Z,101452.30
2019-02-03T13:40:51.902Z,101460.06
2019-02-03T13:43:23.115Z,101458.89
2019-02-03T13:45:52.692Z,101464.80
2019-02-03T13:48:22.189Z,101459.81
2019-02-03T13:50:54.663Z,101465.23
2019-02-03T13:53:22.987Z,101475.76
2019-02-03T13:55:52.757Z,101470.43
2019-02-03T13:58:22.319Z,101479.45
2019-02-03T14:00:51.969Z,101481.16
2019-02-03T14:03:21.619Z,101479.70
2019-02-03T14:05:51.098Z,101483.70
2019-02-03T14:08:20.700Z,101484.28
2019-02-03T14:10:50.244Z,101485.70
2019-02-03T14:13:19.888Z,101485.50
2019-02-03T14:15:49.387Z,101492.27
2019-02-03T14:18:18.907Z,101500.70
2019-02-03T14:20:48.471Z,101506.67
2019-02-03T14:23:18.031Z,101510.89
2019-02-03T14:25:47.527Z,101512.40
2019-02-03T14:28:17.146Z,101511.41
2019-02-03T14:30:46.827Z,101514.55
2019-02-03T14:33:16.415Z,101519.13
2019-02-03T14:35:46.523Z,101512.31
2019-02-03T14:38:16.223Z,101512.69
2019-02-03T14:40:45.736Z,101513.42
2019-02-03T14:43:15.398Z,101516.28
2019-02-03T14:45:45.047Z,101512.52
2019-02-03T14:48:14.550Z,101514.80
2019-02-03T14:50:44.137Z,101519.62
2019-02-03T14:53:14.340Z,101521.59
2019-02-03T14:55:46.147Z,101524.56
2019-02-03T14:58:15.734Z,101523.63
2019-02-03T15:00:48.068Z,101524.15
2019-02-03T15:03:19.970Z,101524.77
2019-02-03T15:05:50.102Z,101524.63
2019-02-03T15:08:19.737Z,101526.41
2019-02-03T15:10:49.404Z,101528.86
2019-02-03T15:13:18.957Z,101530.17
2019-02-03T15:15:48.846Z,101536.21
2019-02-03T15:18:18.443Z,101533.15
2019-02-03T15:20:47.986Z,101537.55
2019-02-03T15:23:17.468Z,101544.62
2019-02-03T15:25:47.032Z,101554.18
2019-02-03T15:28:16.997Z,101555.23
2019-02-03T15:30:47.084Z,101560.20
2019-02-03T15:33:16.745Z,101557.84
2019-02-03T15:35:46.307Z,101563.09
2019-02-03T15:38:15.929Z,101570.42
2019-02-03T15:40:45.686Z,101569.03
2019-02-03T15:43:25.215Z,101574.45
2019-02-03T15:45:46.542Z,101573.94
2019-02-03T15:48:16.092Z,101573.67
2019-02-03T15:50:45.600Z,101572.37
2019-02-03T15:53:15.290Z,101583.53
2019-02-03T15:55:44.844Z,101582.51
2019-02-03T15:58:14.936Z,101589.11
2019-02-03T16:00:51.467Z,101594.67
2019-02-03T16:03:21.093Z,101598.05
2019-02-03T16:05:51.142Z,101597.11
2019-02-03T16:08:20.636Z,101598.33
2019-02-03T16:10:50.201Z,101601.25
2019-02-03T16:13:19.761Z,101600.78
2019-02-03T16:15:49.362Z,101609.67
2019-02-03T16:18:18.905Z,101611.31
2019-02-03T16:20:48.427Z,101612.97
2019-02-03T16:23:17.918Z,101624.82
2019-02-03T16:25:47.536Z,101627.34
2019-02-03T16:28:17.106Z,101631.55
2019-02-03T16:30:46.683Z,101635.92
2019-02-03T16:33:16.167Z,101643.66
2019-02-03T16:35:45.715Z,101646.72
2019-02-03T16:38:22.933Z,101649.05
2019-02-03T16:40:46.502Z,101649.30
2019-02-03T16:43:16.446Z,101658.08
2019-02-03T16:45:46.066Z,101664.61
2019-02-03T16:48:15.686Z,101666.70
2019-02-03T16:50:45.335Z,101668.31
2019-02-03T16:53:14.824Z,101663.65
2019-02-03T16:55:44.396Z,101671.55
2019-02-03T16:58:13.967Z,101674.97
2019-02-03T17:00:43.603Z,101675.47
2019-02-03T17:03:13.255Z,101670.34
2019-02-03T17:05:42.794Z,101674.82
2019-02-03T17:08:13.576Z,101680.98
2019-02-03T17:10:44.164Z,101686.94
2019-02-03T17:13:13.902Z,101698.00
2019-02-03T17:15:51.238Z,101698.04
2019-02-03T17:18:20.795Z,101699.93
2019-02-03T17:21:01.300Z,101700.34
2019-02-03T17:23:21.646Z,101712.56
2019-02-03T17:25:58.836Z,101710.00
2019-02-03T17:28:28.391Z,101709.27
2019-02-03T17:30:58.127Z,101717.27
2019-02-03T17:33:27.610Z,101720.78
2019-02-03T17:35:57.177Z,101727.66
2019-02-03T17:38:26.779Z,101737.19
2019-02-03T17:40:56.267Z,101740.48
2019-02-03T17:43:25.980Z,101741.17
2019-02-03T17:45:55.565Z,101743.35
2019-02-03T17:48:25.148Z,101748.02
2019-02-03T17:50:54.773Z,101755.23
2019-02-03T17:53:24.712Z,101755.80
2019-02-03T17:55:54.442Z,101761.12
2019-02-03T17:58:24.061Z,101765.53
2019-02-03T18:01:01.307Z,101767.33
2019-02-03T18:03:31.048Z,101771.66
2019-02-03T18:06:00.913Z,101773.74
2019-02-03T18:08:30.433Z,101771.74
2019-02-03T18:10:59.948Z,101772.27
2019-02-03T18:13:29.530Z,101776.72
2019-02-03T18:15:59.030Z,101773.27
2019-02-03T18:18:28.602Z,101781.44
2019-02-03T18:20:58.206Z,101783.73
2019-02-03T18:23:27.807Z,101783.53
2019-02-03T18:25:57.365Z,101790.98
2019-02-03T18:28:26.937Z,101787.50
2019-02-03T18:30:56.483Z,101787.08
2019-02-03T18:33:26.556Z,101793.80
2019-02-03T18:35:56.071Z,101789.03
2019-02-03T18:38:25.575Z,101796.67
2019-02-03T18:40:55.383Z,101793.94
2019-02-03T18:43:24.958Z,101801.80
2019-02-03T18:45:54.603Z,101803.89
2019-02-03T18:48:24.237Z,101809.11
2019-02-03T18:50:53.821Z,101806.35
2019-02-03T18:53:23.493Z,101814.32
2019-02-03T18:55:53.034Z,101821.45
2019-02-03T18:58:22.632Z,101821.88
2019-02-03T19:00:52.535Z,101819.09
2019-02-03T19:03:22.092Z,101819.25
2019-02-03T19:05:51.699Z,101823.48
2019-02-03T19:08:21.277Z,101819.26
2019-02-03T19:10:50.885Z,101819.98
2019-02-03T19:13:20.385Z,101827.41
2019-02-03T19:15:52.704Z,101834.20
2019-02-03T19:18:21.538Z,101836.27
2019-02-03T19:20:51.036Z,101843.77
2019-02-03T19:23:20.610Z,101846.70
2019-02-03T19:25:50.154Z,101849.11
2019-02-03T19:28:19.934Z,101850.93
2019-02-03T19:30:49.500Z,101856.58
2019-02-03T19:33:19.110Z,101857.36
2019-02-03T19:35:48.617Z,101867.70
2019-02-03T19:38:18.195Z,101872.80
2019-02-03T19:40:48.515Z,101868.38
2019-02-03T19:43:18.012Z,101876.63
2019-02-03T19:45:47.704Z,101880.08
2019-02-03T19:48:17.181Z,101887.67
2019-02-03T19:50:46.782Z,101885.12
2019-02-03T19:53:16.314Z,101878.78
2019-02-03T19:55:45.974Z,101888.71
2019-02-03T19:58:15.574Z,101886.02
2019-02-03T20:00:46.897Z,101885.47
2019-02-03T20:03:16.404Z,101885.50
2019-02-03T20:05:46.053Z,101889.61
2019-02-03T20:08:16.022Z,101894.39
2019-02-03T20:10:45.647Z,101892.83
2019-02-03T20:13:15.216Z,101895.13
2019-02-03T20:15:44.724Z,101901.75
2019-02-03T20:18:14.367Z,101902.29
2019-02-03T20:20:43.882Z,101908.53
2019-02-03T20:23:13.658Z,101908.81
2019-02-03T20:25:43.384Z,101914.06
2019-02-03T20:28:12.965Z,101923.91
2019-02-03T20:30:42.614Z,101921.29
2019-02-03T20:33:12.228Z,101929.80
2019-02-03T20:35:41.820Z,101925.38
2019-02-03T20:38:11.583Z,101930.39
2019-02-03T20:40:45.522Z,101931.66
2019-02-03T20:43:15.126Z,101941.29
2019-02-03T20:45:49.387Z,101945.17
2019-02-03T20:48:16.113Z,101952.23
2019-02-03T20:50:45.771Z,101957.09
2019-02-03T20:53:19.067Z,101953.07
2019-02-03T20:55:48.563Z,101954.40
2019-02-03T20:58:18.163Z,101956.80
2019-02-03T21:00:47.715Z,101962.30
2019-02-03T21:03:17.601Z,101965.84
2019-02-03T21:05:47.129Z,101972.44
2019-02-03T21:08:16.759Z,101971.14
2019-02-03T21:10:46.297Z,101979.05
2019-02-03T21:13:15.871Z,101977.28
2019-02-03T21:15:45.498Z,101975.95
2019-02-03T21:18:15.059Z,101981.70
2019-02-03T21:20:44.601Z,101982.14
2019-02-03T21:23:14.634Z,101974.48
2019-02-03T21:25:44.119Z,101983.52
2019-02-03T21:28:13.706Z,101991.92
2019-02-03T21:30:43.575Z,101986.47
2019-02-03T21:33:13.152Z,101989.13
2019-02-03T21:35:42.608Z,101998.89
2019-02-03T21:38:12.376Z,101997.03
2019-02-03T21:40:42.007Z,101998.49
2019-02-03T21:43:11.491Z,102010.33
2019-02-03T21:45:44.879Z,102022.45
2019-02-03T21:48:12.365Z,102022.81
2019-02-03T21:50:41.990Z,102023.42
2019-02-03T21:53:11.651Z,102017.50
2019-02-03T21:55:41.143Z,102019.30
2019-02-03T21:58:10.843Z,102024.94
2019-02-03T22:00:40.498Z,102025.90
2019-02-03T22:03:10.012Z,102017.42
2019-02-03T22:05:39.531Z,102035.87
2019-02-03T22:08:09.107Z,102040.30
2019-02-03T22:10:39.083Z,102044.42
2019-02-03T22:13:08.668Z,102044.19
2019-02-03T22:15:38.247Z,102042.66
2019-02-03T22:18:07.905Z,102037.69
2019-02-03T22:20:37.423Z,102037.17
2019-02-03T22:23:07.106Z,102037.67
2019-02-03T22:25:37.109Z,102036.55
2019-02-03T22:28:06.820Z,102041.17
2019-02-03T22:30:38.943Z,102047.06
2019-02-03T22:33:08.603Z,102044.23
2019-02-03T22:35:38.319Z,102038.15
2019-02-03T22:38:08.166Z,102044.00
2019-02-03T22:40:37.823Z,102047.94
2019-02-03T22:43:07.450Z,102057.36
2019-02-03T22:45:38.023Z,102058.26
2019-02-03T22:48:07.939Z,102060.83
2019-02-03T22:50:37.701Z,102065.54
2019-02-03T22:53:09.434Z,102071.53
2019-02-03T22:55:38.639Z,102068.45
2019-02-03T22:58:09.197Z,102063.73
2019-02-03T23:00:52.252Z,102065.91
2019-02-03T23:03:32.260Z,102065.55
2019-02-03T23:06:01.848Z,102068.72
2019-02-03T23:08:31.422Z,102056.59
2019-02-03T23:11:01.019Z,102057.01
2019-02-03T23:13:31.078Z,102067.69
2019-02-03T23:16:00.600Z,102061.85
2019-02-03T23:18:30.080Z,102073.31
2019-02-03T23:20:59.644Z,102073.18
2019-02-03T23:23:29.207Z,102074.56
2019-02-03T23:25:58.773Z,102074.40
2019-02-03T23:28:28.459Z,102078.60
2019-02-03T23:30:58.018Z,102075.52
2019-02-03T23:33:27.605Z,102069.58
2019-02-03T23:35:57.117Z,102071.05
2019-02-03T23:38:26.605Z,102069.95
2019-02-03T23:40:56.110Z,102068.19
2019-02-03T23:43:25.704Z,102067.69
2019-02-03T23:45:55.276Z,102070.48
2019-02-03T23:48:24.876Z,102066.67
2019-02-03T23:50:54.541Z,102059.05
2019-02-03T23:53:25.769Z,102061.33
2019-02-03T23:55:55.346Z,102059.12
2019-02-03T23:58:24.930Z,102052.65
